Time;durP1;ratioP1;P1;durP2;ratioP2;P2;SDS_P1;SDS_P2;PMS_P1;PMS_P2;Temp;Humidity;BMP_temperature;BMP_pressure;BME280_temperature;BME280_humidity;BME280_pressure;Samples;Min_cycle;Max_cycle;Signal;HPM_P1;HPM_P2
2023/05/13 00:01:21;;;;;;;1999.90;999.90;;;10.30;90.40;;;;;;5026572;28;20105;-84
2023/05/13 00:03:48;;;;;;;1999.90;999.90;;;10.20;90.90;;;;;;5027011;28;20103;-87
2023/05/13 00:06:14;;;;;;;1999.90;999.90;;;10.30;90.60;;;;;;5030890;28;20044;-86
2023/05/13 00:08:43;;;;;;;1999.90;999.90;;;10.20;90.60;;;;;;5039165;28;20083;-85
2023/05/13 00:11:09;;;;;;;1999.90;999.90;;;10.40;90.60;;;;;;5034543;28;20108;-86
2023/05/13 00:13:35;;;;;;;1999.90;999.90;;;10.30;90.60;;;;;;5033390;28;20499;-85
2023/05/13 00:16:01;;;;;;;1999.90;999.90;;;10.40;90.40;;;;;;5030331;28;20033;-87
2023/05/13 00:18:27;;;;;;;1999.90;999.90;;;10.30;90.60;;;;;;5024851;28;20111;-86
2023/05/13 00:20:55;;;;;;;1999.90;999.90;;;10.30;90.60;;;;;;5021739;28;20037;-85
2023/05/13 00:23:21;;;;;;;1999.90;999.90;;;10.40;90.40;;;;;;5032101;28;20034;-87
2023/05/13 00:25:48;;;;;;;1999.90;999.90;;;10.30;90.60;;;;;;5034164;28;20073;-86
2023/05/13 00:28:14;;;;;;;1999.90;999.90;;;10.20;90.70;;;;;;5038114;28;20491;-87
2023/05/13 00:30:42;;;;;;;1999.90;999.90;;;10.20;90.80;;;;;;5038163;28;20036;-86
2023/05/13 00:33:08;;;;;;;1999.90;999.90;;;10.20;90.80;;;;;;5035165;28;20026;-86
2023/05/13 00:35:34;;;;;;;1999.90;999.90;;;10.30;90.80;;;;;;5034468;28;20043;-85
2023/05/13 00:38:01;;;;;;;1999.90;999.90;;;10.20;90.60;;;;;;5031147;28;20025;-88
2023/05/13 00:40:28;;;;;;;1999.90;999.90;;;10.20;90.90;;;;;;5032136;28;20039;-86
2023/05/13 00:42:54;;;;;;;1999.90;999.90;;;10.20;90.80;;;;;;5015696;28;20044;-86
2023/05/13 00:45:20;;;;;;;1999.90;999.90;;;10.10;90.90;;;;;;5032732;28;20029;-87
2023/05/13 00:47:48;;;;;;;1999.90;999.90;;;10.20;91.00;;;;;;5035549;28;20502;-88
2023/05/13 00:50:14;;;;;;;1999.90;999.90;;;10.10;91.00;;;;;;5028281;28;20057;-87
2023/05/13 00:52:41;;;;;;;1999.90;999.90;;;10.20;91.00;;;;;;5032483;28;20068;-86
2023/05/13 00:55:08;;;;;;;1999.90;999.90;;;10.10;90.90;;;;;;5034839;28;20493;-87
2023/05/13 00:57:34;;;;;;;1999.90;999.90;;;10.20;90.90;;;;;;5026841;28;20052;-87
2023/05/13 01:00:01;;;;;;;1999.90;999.90;;;10.20;90.90;;;;;;5035513;28;20079;-86
2023/05/13 01:02:34;;;;;;;1999.90;999.90;;;10.20;90.80;;;;;;5029271;28;20022;-88
2023/05/13 01:05:34;;;;;;;1999.90;999.90;;;10.20;90.80;;;;;;5029981;28;20041;-86
2023/05/13 01:08:12;;;;;;;1999.90;999.90;;;10.00;90.90;;;;;;5031262;28;20544;-87
2023/05/13 01:10:49;;;;;;;1999.90;999.90;;;9.90;91.10;;;;;;5033444;28;20080;-86
2023/05/13 01:13:21;;;;;;;1999.90;999.90;;;10.00;91.30;;;;;;5037782;28;20032;-87
2023/05/13 01:16:11;;;;;;;1999.90;999.90;;;10.00;91.10;;;;;;5030373;28;20422;-86
2023/05/13 01:18:43;;;;;;;1999.90;999.90;;;10.00;91.00;;;;;;5026959;28;20424;-85
2023/05/13 01:21:11;;;;;;;1999.90;999.90;;;10.00;90.80;;;;;;5035590;28;20029;-88
2023/05/13 01:23:38;;;;;;;1999.90;999.90;;;10.00;90.90;;;;;;5030740;28;20052;-85
2023/05/13 01:26:03;;;;;;;1999.90;999.90;;;10.00;90.80;;;;;;5033836;28;20025;-83
2023/05/13 01:28:29;;;;;;;1999.90;999.90;;;10.00;91.00;;;;;;5031877;28;20025;-86
2023/05/13 01:30:57;;;;;;;1999.90;999.90;;;9.90;90.80;;;;;;5034666;28;20076;-86
2023/05/13 01:33:23;;;;;;;1999.90;999.90;;;10.00;90.60;;;;;;5026362;28;20038;-86
2023/05/13 01:35:50;;;;;;;1999.90;999.90;;;10.10;90.80;;;;;;5028824;28;20040;-85
2023/05/13 01:38:19;;;;;;;1999.90;999.90;;;9.90;90.90;;;;;;5025634;28;20057;-86
2023/05/13 01:40:45;;;;;;;1999.90;999.90;;;10.00;91.00;;;;;;5027122;28;20033;-85
2023/05/13 01:43:11;;;;;;;1999.90;999.90;;;9.90;91.00;;;;;;5029932;28;20041;-87
2023/05/13 01:45:36;;;;;;;1999.90;999.90;;;10.00;90.80;;;;;;5029089;28;20750;-87
2023/05/13 01:48:03;;;;;;;1999.90;999.90;;;10.00;91.10;;;;;;5026746;28;20036;-84
2023/05/13 01:50:29;;;;;;;1999.90;999.90;;;9.90;91.00;;;;;;5030595;28;20040;-87
2023/05/13 01:52:56;;;;;;;1999.90;999.90;;;9.90;90.90;;;;;;5039128;28;20030;-84
2023/05/13 01:55:21;;;;;;;1999.90;999.90;;;9.90;90.60;;;;;;5030515;28;20125;-86
2023/05/13 01:57:48;;;;;;;1999.90;999.90;;;10.00;90.80;;;;;;5026611;28;20108;-85
2023/05/13 02:00:17;;;;;;;1999.90;999.90;;;9.90;90.60;;;;;;5034354;28;20037;-85
2023/05/13 02:02:43;;;;;;;1999.90;999.90;;;9.90;90.80;;;;;;5032928;28;20105;-84
2023/05/13 02:05:09;;;;;;;1999.90;999.90;;;9.90;90.70;;;;;;5017379;28;20037;-85
2023/05/13 02:07:37;;;;;;;1999.90;999.90;;;9.80;91.00;;;;;;5035444;28;20028;-85
2023/05/13 02:10:03;;;;;;;1999.90;999.90;;;9.90;90.90;;;;;;5023213;28;20071;-86
2023/05/13 02:12:28;;;;;;;1999.90;999.90;;;10.00;90.60;;;;;;5020940;28;20387;-84
2023/05/13 02:14:54;;;;;;;1999.90;999.90;;;9.90;90.50;;;;;;5030553;28;20037;-89
2023/05/13 02:17:21;;;;;;;1999.90;999.90;;;9.80;90.60;;;;;;5027419;28;20120;-86
2023/05/13 02:19:47;;;;;;;1999.90;999.90;;;9.90;90.80;;;;;;5032248;28;20042;-86
2023/05/13 02:22:12;;;;;;;1999.90;999.90;;;9.90;90.70;;;;;;5030731;28;20037;-86
2023/05/13 02:24:41;;;;;;;1999.90;999.90;;;9.90;90.50;;;;;;5031436;28;20561;-86
2023/05/13 02:27:07;;;;;;;1999.90;999.90;;;9.90;90.70;;;;;;5026256;28;20056;-88
2023/05/13 02:29:33;;;;;;;1999.90;999.90;;;9.80;91.00;;;;;;5029161;28;20503;-86
2023/05/13 02:31:59;;;;;;;1999.90;999.90;;;9.80;90.90;;;;;;5027210;28;20104;-87
2023/05/13 02:34:24;;;;;;;1999.90;999.90;;;9.80;91.10;;;;;;5026172;28;20171;-87
2023/05/13 02:36:51;;;;;;;1999.90;999.90;;;9.90;91.10;;;;;;5018506;28;20625;-87
2023/05/13 02:39:17;;;;;;;1999.90;999.90;;;9.80;91.10;;;;;;5019945;28;20021;-88
2023/05/13 02:41:43;;;;;;;1999.90;999.90;;;9.90;91.40;;;;;;5026172;28;20116;-87
2023/05/13 02:44:09;;;;;;;1999.90;999.90;;;9.90;91.40;;;;;;5022454;28;20038;-85
2023/05/13 02:46:36;;;;;;;1999.90;999.90;;;9.80;91.40;;;;;;5028790;28;20029;-85
2023/05/13 02:49:02;;;;;;;1999.90;999.90;;;9.70;91.50;;;;;;5025646;28;20041;-87
2023/05/13 02:51:28;;;;;;;1999.90;999.90;;;9.70;91.50;;;;;;5034907;28;20029;-84
2023/05/13 02:53:55;;;;;;;1999.90;999.90;;;9.70;91.50;;;;;;5026681;28;20132;-85
2023/05/13 02:56:20;;;;;;;1999.90;999.90;;;9.90;91.50;;;;;;5030639;28;21782;-85
2023/05/13 02:58:46;;;;;;;1999.90;999.90;;;9.80;91.00;;;;;;5033376;28;20042;-86
2023/05/13 03:01:12;;;;;;;1999.90;999.90;;;9.70;91.20;;;;;;5025823;28;20029;-83
2023/05/13 03:03:38;;;;;;;1999.90;999.90;;;9.80;90.80;;;;;;5034624;28;20029;-88
2023/05/13 03:06:04;;;;;;;1999.90;999.90;;;9.70;91.00;;;;;;5025979;28;20087;-87
2023/05/13 03:08:30;;;;;;;1999.90;999.90;;;9.70;90.90;;;;;;5013727;28;20067;-87
2023/05/13 03:10:57;;;;;;;1999.90;999.90;;;9.70;90.90;;;;;;5030376;28;20021;-87
2023/05/13 03:13:23;;;;;;;1999.90;999.90;;;9.60;91.00;;;;;;5031540;28;20040;-87
2023/05/13 03:15:49;;;;;;;1999.90;999.90;;;9.60;90.90;;;;;;5032185;28;20037;-89
2023/05/13 03:18:14;;;;;;;1999.90;999.90;;;9.60;91.00;;;;;;5033903;28;20491;-88
2023/05/13 03:20:41;;;;;;;1999.90;999.90;;;9.70;91.00;;;;;;5028816;28;20817;-87
2023/05/13 03:23:07;;;;;;;1999.90;999.90;;;9.70;90.80;;;;;;5020944;28;20048;-88
2023/05/13 03:25:33;;;;;;;1999.90;999.90;;;9.60;91.00;;;;;;5030508;28;20054;-88
2023/05/13 03:27:58;;;;;;;1999.90;999.90;;;9.60;91.00;;;;;;5036551;28;20029;-88
2023/05/13 03:30:24;;;;;;;1999.90;999.90;;;9.70;90.90;;;;;;5025163;28;20136;-87
2023/05/13 03:32:50;;;;;;;1999.90;999.90;;;9.50;91.00;;;;;;5033199;28;20111;-85
2023/05/13 03:35:15;;;;;;;1999.90;999.90;;;9.50;91.30;;;;;;5027567;28;20033;-88
2023/05/13 03:37:43;;;;;;;1999.90;999.90;;;9.60;91.30;;;;;;5040883;28;20036;-85
2023/05/13 03:40:09;;;;;;;1999.90;999.90;;;9.60;91.10;;;;;;5027582;28;20495;-87
2023/05/13 03:42:35;;;;;;;1999.90;999.90;;;9.50;91.10;;;;;;5034917;28;20029;-88
2023/05/13 03:45:02;;;;;;;1999.90;999.90;;;9.40;91.20;;;;;;5030181;28;20066;-88
2023/05/13 03:47:29;;;;;;;1999.90;999.90;;;9.50;91.30;;;;;;5028596;28;20034;-87
2023/05/13 03:49:55;;;;;;;1999.90;999.90;;;9.50;91.30;;;;;;5030372;28;20025;-85
2023/05/13 03:52:20;;;;;;;1999.90;999.90;;;9.50;91.30;;;;;;5034287;28;20041;-88
2023/05/13 03:54:46;;;;;;;1999.90;999.90;;;9.50;91.20;;;;;;5028686;28;20021;-86
2023/05/13 03:57:11;;;;;;;1999.90;999.90;;;9.50;91.20;;;;;;5023572;28;20061;-87
2023/05/13 03:59:39;;;;;;;1999.90;999.90;;;9.50;91.20;;;;;;5030707;28;20029;-86
2023/05/13 04:02:07;;;;;;;1999.90;999.90;;;9.60;91.20;;;;;;5032434;28;20517;-84
2023/05/13 04:04:32;;;;;;;1999.90;999.90;;;9.50;91.20;;;;;;5041148;28;20060;-85
2023/05/13 04:06:58;;;;;;;1999.90;999.90;;;9.40;91.50;;;;;;5029950;28;20026;-85
2023/05/13 04:09:24;;;;;;;1999.90;999.90;;;9.50;91.30;;;;;;5016823;28;20513;-85
2023/05/13 04:11:49;;;;;;;1999.90;999.90;;;9.40;91.70;;;;;;5034406;28;20042;-85
2023/05/13 04:14:17;;;;;;;1999.90;999.90;;;9.50;91.50;;;;;;5006637;28;20037;-86
2023/05/13 04:16:43;;;;;;;1999.90;999.90;;;9.50;91.50;;;;;;5031223;28;20034;-88
2023/05/13 04:19:10;;;;;;;1999.90;999.90;;;9.50;91.40;;;;;;5026218;28;20084;-86
2023/05/13 04:21:36;;;;;;;1999.90;999.90;;;9.40;91.90;;;;;;5047250;28;20034;-88
2023/05/13 04:24:01;;;;;;;1999.90;999.90;;;9.50;91.60;;;;;;5031202;28;20112;-87
2023/05/13 04:26:27;;;;;;;1999.90;999.90;;;9.50;91.30;;;;;;5027184;28;20499;-86
2023/05/13 04:28:53;;;;;;;1999.90;999.90;;;9.50;91.50;;;;;;5029894;28;20546;-87
2023/05/13 04:31:20;;;;;;;1999.90;999.90;;;9.50;91.50;;;;;;5015442;28;20441;-88
2023/05/13 04:33:45;;;;;;;1999.90;999.90;;;9.50;91.40;;;;;;5026315;28;20018;-87
2023/05/13 04:36:11;;;;;;;1999.90;999.90;;;9.50;91.50;;;;;;5028643;28;20021;-86
2023/05/13 04:38:38;;;;;;;1999.90;999.90;;;9.60;91.50;;;;;;5032350;28;20478;-87
2023/05/13 04:41:04;;;;;;;1999.90;999.90;;;9.60;91.60;;;;;;5026506;28;20031;-87
2023/05/13 04:43:30;;;;;;;1999.90;999.90;;;9.60;91.20;;;;;;5028754;28;20155;-87
2023/05/13 04:45:56;;;;;;;1999.90;999.90;;;9.60;91.10;;;;;;5026184;28;20034;-87
2023/05/13 04:48:26;;;;;;;1999.90;999.90;;;9.60;91.20;;;;;;5030236;28;20044;-87
2023/05/13 04:50:52;;;;;;;1999.90;999.90;;;9.60;91.20;;;;;;5023437;28;20032;-86
2023/05/13 04:53:19;;;;;;;1999.90;999.90;;;9.60;91.10;;;;;;5026095;28;20447;-88
2023/05/13 04:55:49;;;;;;;1999.90;999.90;;;9.60;91.00;;;;;;5015121;28;20029;-88
2023/05/13 04:58:14;;;;;;;1999.90;999.90;;;9.50;91.30;;;;;;5030367;28;20040;-88
2023/05/13 05:00:40;;;;;;;1999.90;999.90;;;9.60;91.20;;;;;;5028432;28;20033;-86
2023/05/13 05:03:06;;;;;;;1999.90;999.90;;;9.50;91.10;;;;;;5030346;28;20060;-86
2023/05/13 05:05:32;;;;;;;1999.90;999.90;;;9.50;90.90;;;;;;5034172;28;20478;-85
2023/05/13 05:07:57;;;;;;;1999.90;999.90;;;9.40;91.30;;;;;;5028544;28;20033;-88
2023/05/13 05:10:23;;;;;;;1999.90;999.90;;;9.40;91.20;;;;;;5033154;28;20065;-85
2023/05/13 05:12:50;;;;;;;1999.90;999.90;;;9.40;91.20;;;;;;5026711;28;20092;-87
2023/05/13 05:15:16;;;;;;;1999.90;999.90;;;9.40;91.30;;;;;;5029492;28;20033;-87
2023/05/13 05:17:42;;;;;;;1999.90;999.90;;;9.60;91.10;;;;;;5027465;28;20443;-86
2023/05/13 05:20:09;;;;;;;1999.90;999.90;;;9.50;91.00;;;;;;5028873;28;20025;-87
2023/05/13 05:22:36;;;;;;;1999.90;999.90;;;9.60;90.80;;;;;;5030753;28;20129;-86
2023/05/13 05:25:03;;;;;;;1999.90;999.90;;;9.60;90.80;;;;;;5033279;28;20128;-86
2023/05/13 05:27:29;;;;;;;1999.90;999.90;;;9.60;90.70;;;;;;5030299;28;20034;-86
2023/05/13 05:29:56;;;;;;;1999.90;999.90;;;9.60;90.80;;;;;;5035976;28;20033;-86
2023/05/13 05:32:22;;;;;;;1999.90;999.90;;;9.70;90.80;;;;;;5033688;28;20049;-88
2023/05/13 05:34:49;;;;;;;1999.90;999.90;;;9.60;90.40;;;;;;5016275;28;20537;-88
2023/05/13 05:37:14;;;;;;;1999.90;999.90;;;9.80;90.30;;;;;;5014694;28;20407;-88
2023/05/13 05:39:40;;;;;;;1999.90;999.90;;;9.80;90.50;;;;;;5033442;28;20034;-86
2023/05/13 05:42:07;;;;;;;1999.90;999.90;;;9.80;90.30;;;;;;5024192;28;20517;-86
2023/05/13 05:44:33;;;;;;;1999.90;999.90;;;9.80;90.20;;;;;;5013119;28;20067;-86
2023/05/13 05:46:58;;;;;;;1999.90;999.90;;;9.70;90.50;;;;;;5025178;28;20029;-86
2023/05/13 05:49:24;;;;;;;1999.90;999.90;;;9.70;90.40;;;;;;5028397;28;20022;-87
2023/05/13 05:51:49;;;;;;;1999.90;999.90;;;9.80;90.30;;;;;;5027086;28;20060;-87
2023/05/13 05:54:15;;;;;;;1999.90;999.90;;;9.90;90.40;;;;;;5023847;28;20482;-87
2023/05/13 05:56:42;;;;;;;1999.90;999.90;;;9.90;90.30;;;;;;5030233;28;20029;-88
2023/05/13 05:59:08;;;;;;;1999.90;999.90;;;10.10;90.10;;;;;;5027472;28;20044;-86
2023/05/13 06:01:35;;;;;;;1999.90;999.90;;;10.30;89.10;;;;;;5032123;28;20037;-87
2023/05/13 06:04:03;;;;;;;1999.90;999.90;;;10.20;88.90;;;;;;5026514;28;20064;-88
2023/05/13 06:06:28;;;;;;;1999.90;999.90;;;10.30;88.00;;;;;;5025760;28;20033;-84
2023/05/13 06:08:54;;;;;;;1999.90;999.90;;;10.40;87.90;;;;;;5024552;28;20033;-81
2023/05/13 06:11:20;;;;;;;1999.90;999.90;;;10.40;88.30;;;;;;5034751;28;20108;-82
2023/05/13 06:13:46;;;;;;;1999.90;999.90;;;10.30;87.90;;;;;;5022336;28;20017;-84
2023/05/13 06:16:13;;;;;;;1999.90;999.90;;;10.40;88.50;;;;;;5033685;28;20406;-84
2023/05/13 06:18:39;;;;;;;1999.90;999.90;;;10.40;88.30;;;;;;5022561;28;20037;-84
2023/05/13 06:21:05;;;;;;;1999.90;999.90;;;10.30;89.10;;;;;;5025822;28;20152;-89
2023/05/13 06:23:31;;;;;;;1999.90;999.90;;;10.30;88.80;;;;;;5023793;28;20044;-84
2023/05/13 06:25:58;;;;;;;1999.90;999.90;;;10.30;88.40;;;;;;5016478;28;20476;-84
2023/05/13 06:28:23;;;;;;;1999.90;999.90;;;10.40;88.60;;;;;;5026196;28;20092;-83
2023/05/13 06:30:49;;;;;;;1999.90;999.90;;;10.20;88.20;;;;;;5030497;28;20038;-81
2023/05/13 06:33:15;;;;;;;1999.90;999.90;;;10.30;88.20;;;;;;5014984;28;20036;-83
2023/05/13 06:35:40;;;;;;;1999.90;999.90;;;10.30;88.10;;;;;;5028282;28;20516;-80
2023/05/13 06:38:06;;;;;;;1999.90;999.90;;;10.40;88.00;;;;;;5028941;28;20478;-80
2023/05/13 06:40:32;;;;;;;1999.90;999.90;;;10.20;87.70;;;;;;5037195;28;20041;-84
2023/05/13 06:42:58;;;;;;;1999.90;999.90;;;10.30;88.20;;;;;;5029749;28;20048;-81
2023/05/13 06:45:24;;;;;;;1999.90;999.90;;;10.20;88.30;;;;;;5035182;28;20092;-86
2023/05/13 06:47:50;;;;;;;1999.90;999.90;;;10.50;88.00;;;;;;5030631;28;20033;-83
2023/05/13 06:50:16;;;;;;;1999.90;999.90;;;10.50;87.90;;;;;;5034826;28;20029;-84
2023/05/13 06:52:42;;;;;;;1999.90;999.90;;;10.70;86.60;;;;;;5031403;28;20040;-85
2023/05/13 06:55:09;;;;;;;1999.90;999.90;;;10.70;87.00;;;;;;5034433;28;20430;-81
2023/05/13 06:57:35;;;;;;;1999.90;999.90;;;10.70;87.10;;;;;;5027144;28;20029;-82
2023/05/13 07:00:02;;;;;;;1999.90;999.90;;;10.60;86.50;;;;;;5026367;28;20080;-83
2023/05/13 07:02:28;;;;;;;1999.90;999.90;;;10.50;87.50;;;;;;5014927;28;20502;-86
2023/05/13 07:04:54;;;;;;;1999.90;999.90;;;10.60;87.40;;;;;;5025386;28;20049;-81
2023/05/13 07:07:19;;;;;;;1999.90;999.90;;;10.60;87.30;;;;;;4995778;28;20523;-83
2023/05/13 07:09:45;;;;;;;1999.90;999.90;;;10.50;87.30;;;;;;5032813;28;20028;-82
2023/05/13 07:12:11;;;;;;;1999.90;999.90;;;10.50;87.70;;;;;;5031550;28;20028;-84
2023/05/13 07:14:37;;;;;;;1999.90;999.90;;;10.60;87.30;;;;;;5024013;28;20052;-84
2023/05/13 07:17:03;;;;;;;1999.90;999.90;;;10.70;86.90;;;;;;5029465;28;21370;-83
2023/05/13 07:19:30;;;;;;;1999.90;999.90;;;10.70;86.40;;;;;;5028675;28;20041;-82
2023/05/13 07:21:56;;;;;;;1999.90;999.90;;;10.60;86.60;;;;;;5047169;28;20025;-84
2023/05/13 07:24:21;;;;;;;1999.90;999.90;;;10.60;86.70;;;;;;5030758;28;20055;-84
2023/05/13 07:26:47;;;;;;;1999.90;999.90;;;10.60;88.20;;;;;;5031125;28;20850;-85
2023/05/13 07:29:13;;;;;;;1999.90;999.90;;;10.70;87.10;;;;;;5032796;28;20044;-85
2023/05/13 07:31:39;;;;;;;1999.90;999.90;;;10.60;86.50;;;;;;5047623;28;20025;-86
2023/05/13 07:34:05;;;;;;;1999.90;999.90;;;10.80;86.00;;;;;;5033353;28;20032;-86
2023/05/13 07:36:33;;;;;;;1999.90;999.90;;;10.90;85.90;;;;;;5021448;28;20061;-86
2023/05/13 07:39:00;;;;;;;1999.90;999.90;;;10.80;85.60;;;;;;5028235;28;20034;-85
2023/05/13 07:41:26;;;;;;;1999.90;999.90;;;10.50;86.40;;;;;;5019304;28;20573;-87
2023/05/13 07:43:52;;;;;;;1999.90;999.90;;;10.60;87.20;;;;;;5032113;28;20029;-83
2023/05/13 07:46:18;;;;;;;1999.90;999.90;;;10.60;86.40;;;;;;5030897;28;20084;-84
2023/05/13 07:48:43;;;;;;;1999.90;999.90;;;10.60;86.40;;;;;;5032980;28;20507;-83
2023/05/13 07:51:09;;;;;;;1999.90;999.90;;;10.70;86.70;;;;;;5024384;28;20182;-83
2023/05/13 07:53:35;;;;;;;1999.90;999.90;;;10.60;86.60;;;;;;5046465;28;20029;-83
2023/05/13 07:56:01;;;;;;;1999.90;999.90;;;10.60;87.00;;;;;;5029635;28;20034;-86
2023/05/13 07:58:27;;;;;;;1999.90;999.90;;;10.40;87.00;;;;;;5031653;28;20457;-84
2023/05/13 08:00:53;;;;;;;1999.90;999.90;;;10.70;87.50;;;;;;5032714;28;20137;-84
2023/05/13 08:03:20;;;;;;;1999.90;999.90;;;10.80;86.40;;;;;;5029071;28;20106;-84
2023/05/13 08:05:46;;;;;;;1999.90;999.90;;;10.80;85.70;;;;;;5025952;28;20064;-81
2023/05/13 08:08:12;;;;;;;1999.90;999.90;;;10.90;85.80;;;;;;5027827;28;20033;-84
2023/05/13 08:10:38;;;;;;;1999.90;999.90;;;11.00;85.70;;;;;;5034394;28;20021;-84
2023/05/13 08:13:04;;;;;;;1999.90;999.90;;;10.80;85.30;;;;;;5035747;28;20048;-84
2023/05/13 08:15:29;;;;;;;1999.90;999.90;;;10.60;86.10;;;;;;5030471;28;20036;-86
2023/05/13 08:17:56;;;;;;;1999.90;999.90;;;10.70;86.30;;;;;;5032707;28;20776;-85
2023/05/13 08:20:28;;;;;;;1999.90;999.90;;;10.70;86.90;;;;;;5035730;28;20033;-80
2023/05/13 08:22:55;;;;;;;1999.90;999.90;;;10.70;85.90;;;;;;5013122;28;20828;-84
2023/05/13 08:25:20;;;;;;;1999.90;999.90;;;10.80;86.50;;;;;;5033015;28;20054;-85
2023/05/13 08:27:46;;;;;;;1999.90;999.90;;;10.80;86.20;;;;;;5029756;28;20184;-83
2023/05/13 08:30:12;;;;;;;1999.90;999.90;;;10.80;86.60;;;;;;5034476;28;20474;-80
2023/05/13 08:32:38;;;;;;;1999.90;999.90;;;10.80;85.80;;;;;;5014082;28;20028;-83
2023/05/13 08:35:04;;;;;;;1999.90;999.90;;;10.90;85.80;;;;;;5034430;28;20144;-85
2023/05/13 08:37:30;;;;;;;1999.90;999.90;;;10.80;87.30;;;;;;5032443;28;20079;-85
2023/05/13 08:39:58;;;;;;;1999.90;999.90;;;10.90;86.70;;;;;;5035506;28;20045;-79
2023/05/13 08:42:32;;;;;;;1999.90;999.90;;;10.80;86.20;;;;;;5027545;28;20037;-83
2023/05/13 08:45:01;;;;;;;1999.90;999.90;;;10.90;86.10;;;;;;5028536;28;20682;-83
2023/05/13 08:47:47;;;;;;;1999.90;999.90;;;10.70;86.00;;;;;;5030877;28;20439;-86
2023/05/13 08:50:13;;;;;;;1999.90;999.90;;;11.00;86.00;;;;;;5027286;28;20100;-84
2023/05/13 08:52:39;;;;;;;1999.90;999.90;;;11.10;85.40;;;;;;5029666;28;20064;-85
2023/05/13 08:55:07;;;;;;;1999.90;999.90;;;10.90;85.10;;;;;;5029618;28;20447;-85
2023/05/13 08:57:33;;;;;;;1999.90;999.90;;;10.90;85.40;;;;;;5029874;28;20040;-84
2023/05/13 08:59:59;;;;;;;1999.90;999.90;;;11.00;84.90;;;;;;5030282;28;20091;-85
2023/05/13 09:02:26;;;;;;;1999.90;999.90;;;10.80;86.10;;;;;;5022721;28;20121;-85
2023/05/13 09:04:54;;;;;;;1999.90;999.90;;;11.00;86.30;;;;;;5030289;28;20091;-85
2023/05/13 09:07:19;;;;;;;1999.90;999.90;;;10.90;86.80;;;;;;5029202;28;20032;-83
2023/05/13 09:09:45;;;;;;;1999.90;999.90;;;11.00;86.10;;;;;;5025193;28;20034;-85
2023/05/13 09:12:11;;;;;;;1999.90;999.90;;;10.90;86.30;;;;;;5027383;28;20036;-81
2023/05/13 09:14:37;;;;;;;1999.90;999.90;;;10.80;85.60;;;;;;5029237;28;20380;-85
2023/05/13 09:17:04;;;;;;;1999.90;999.90;;;10.70;86.10;;;;;;5028933;28;20574;-87
2023/05/13 09:19:30;;;;;;;1999.90;999.90;;;10.80;86.50;;;;;;5032523;28;20435;-84
2023/05/13 09:21:56;;;;;;;1999.90;999.90;;;10.80;87.10;;;;;;5032086;28;20024;-89
2023/05/13 09:24:22;;;;;;;1999.90;999.90;;;10.90;87.10;;;;;;5032068;28;20533;-86
2023/05/13 09:26:50;;;;;;;1999.90;999.90;;;10.90;85.80;;;;;;5026864;28;20064;-87
2023/05/13 09:29:21;;;;;;;1999.90;999.90;;;10.90;85.70;;;;;;5024136;28;20033;-88
2023/05/13 09:31:53;;;;;;;1999.90;999.90;;;10.90;86.60;;;;;;5029058;28;20394;-86
2023/05/13 09:34:29;;;;;;;1999.90;999.90;;;11.00;86.20;;;;;;5035432;28;20098;-80
2023/05/13 09:37:03;;;;;;;1999.90;999.90;;;10.80;85.60;;;;;;5025984;28;20478;-88
2023/05/13 09:39:38;;;;;;;1999.90;999.90;;;11.00;85.50;;;;;;5032255;28;20550;-87
2023/05/13 09:42:04;;;;;;;1999.90;999.90;;;10.90;85.70;;;;;;5029697;28;20522;-86
2023/05/13 09:44:30;;;;;;;1999.90;999.90;;;11.10;85.70;;;;;;5031201;28;20163;-87
2023/05/13 09:46:56;;;;;;;1999.90;999.90;;;11.00;86.20;;;;;;5029573;28;20089;-86
2023/05/13 09:49:23;;;;;;;1999.90;999.90;;;11.00;86.00;;;;;;5029700;28;20112;-88
2023/05/13 09:51:49;;;;;;;1999.90;999.90;;;11.20;85.80;;;;;;5034098;28;20024;-84
2023/05/13 09:54:15;;;;;;;1999.90;999.90;;;11.00;86.30;;;;;;5027986;28;20033;-83
2023/05/13 09:56:41;;;;;;;1999.90;999.90;;;10.90;86.40;;;;;;5029020;28;20124;-87
2023/05/13 09:59:08;;;;;;;1999.90;999.90;;;10.90;86.70;;;;;;5007941;28;20967;-86
2023/05/13 10:01:35;;;;;;;1999.90;999.90;;;11.00;86.20;;;;;;5022668;28;20034;-86
2023/05/13 10:04:01;;;;;;;1999.90;999.90;;;11.10;85.60;;;;;;5027436;28;20099;-82
2023/05/13 10:06:29;;;;;;;1999.90;999.90;;;11.00;85.90;;;;;;5027026;28;20034;-86
2023/05/13 10:08:59;;;;;;;1999.90;999.90;;;10.80;86.90;;;;;;5027176;28;20115;-86
2023/05/13 10:11:28;;;;;;;1999.90;999.90;;;10.90;86.30;;;;;;5025342;28;20111;-88
2023/05/13 10:14:03;;;;;;;1999.90;999.90;;;10.80;87.10;;;;;;5018820;28;20022;-87
2023/05/13 10:16:31;;;;;;;1999.90;999.90;;;10.90;86.90;;;;;;5017928;28;20419;-84
2023/05/13 10:18:57;;;;;;;1999.90;999.90;;;10.70;87.30;;;;;;5027719;28;20069;-86
2023/05/13 10:21:26;;;;;;;1999.90;999.90;;;10.60;87.20;;;;;;5020621;28;20030;-86
2023/05/13 10:23:52;;;;;;;1999.90;999.90;;;10.80;87.40;;;;;;5024257;28;20038;-87
2023/05/13 10:26:20;;;;;;;1999.90;999.90;;;10.90;87.00;;;;;;5029011;28;20479;-87
2023/05/13 10:28:49;;;;;;;1999.90;999.90;;;10.90;87.10;;;;;;5027605;28;20029;-83
2023/05/13 10:31:16;;;;;;;1999.90;999.90;;;10.70;86.70;;;;;;5019768;28;20834;-85
2023/05/13 10:33:44;;;;;;;1999.90;999.90;;;10.60;87.70;;;;;;5018937;28;20462;-87
2023/05/13 10:36:28;;;;;;;1999.90;999.90;;;10.80;87.30;;;;;;5023332;28;20061;-88
2023/05/13 10:39:09;;;;;;;1999.90;999.90;;;10.80;86.10;;;;;;5023414;28;20037;-87
2023/05/13 10:41:49;;;;;;;1999.90;999.90;;;10.90;86.90;;;;;;5021667;28;20025;-87
2023/05/13 10:44:18;;;;;;;1999.90;999.90;;;11.10;86.40;;;;;;5024941;28;20402;-86
2023/05/13 10:46:47;;;;;;;1999.90;999.90;;;10.90;87.00;;;;;;5006144;28;20040;-89
2023/05/13 10:49:16;;;;;;;1999.90;999.90;;;11.00;87.20;;;;;;5036180;28;20041;-84
2023/05/13 10:51:49;;;;;;;1999.90;999.90;;;11.10;86.50;;;;;;5030384;28;20104;-90
2023/05/13 10:54:20;;;;;;;1999.90;999.90;;;11.10;86.30;;;;;;5022252;28;20113;-87
2023/05/13 10:56:56;;;;;;;1999.90;999.90;;;11.20;85.40;;;;;;5017122;28;20034;-87
2023/05/13 10:59:22;;;;;;;1999.90;999.90;;;11.10;86.40;;;;;;5038708;28;20064;-86
2023/05/13 11:01:48;;;;;;;1999.90;999.90;;;11.20;85.40;;;;;;5023566;28;20047;-87
2023/05/13 11:04:32;;;;;;;1999.90;999.90;;;11.10;85.10;;;;;;5020809;28;20291;-89
2023/05/13 11:07:14;;;;;;;1999.90;999.90;;;11.40;85.10;;;;;;5021062;28;20029;-87
2023/05/13 11:09:40;;;;;;;1999.90;999.90;;;11.40;85.20;;;;;;5023151;28;20488;-85
2023/05/13 11:12:13;;;;;;;1999.90;999.90;;;11.40;85.80;;;;;;5020590;28;20040;-88
2023/05/13 11:14:43;;;;;;;1999.90;999.90;;;11.40;84.30;;;;;;5023781;28;20034;-87
2023/05/13 11:17:10;;;;;;;1999.90;999.90;;;11.60;84.60;;;;;;5023433;28;20017;-88
2023/05/13 11:19:38;;;;;;;1999.90;999.90;;;11.60;83.70;;;;;;5024625;28;20030;-87
2023/05/13 11:22:12;;;;;;;1999.90;999.90;;;11.60;84.00;;;;;;5021487;28;20037;-88
2023/05/13 11:24:39;;;;;;;1999.90;999.90;;;11.90;82.90;;;;;;5038193;28;20046;-80
2023/05/13 11:27:20;;;;;;;1999.90;999.90;;;11.80;82.80;;;;;;5023916;28;20376;-80
2023/05/13 11:29:54;;;;;;;1999.90;999.90;;;11.60;82.80;;;;;;5021263;28;20029;-89
2023/05/13 11:32:57;;;;;;;1999.90;999.90;;;11.80;84.00;;;;;;5027524;28;20574;-87
2023/05/13 11:35:30;;;;;;;1999.90;999.90;;;11.60;82.90;;;;;;5029941;28;20036;-86
2023/05/13 11:37:58;;;;;;;1999.90;999.90;;;11.70;82.60;;;;;;5023923;28;20494;-88
2023/05/13 11:40:27;;;;;;;1999.90;999.90;;;11.50;83.70;;;;;;5026922;28;20044;-86
2023/05/13 11:42:53;;;;;;;1999.90;999.90;;;11.40;84.10;;;;;;5025698;28;20378;-80
2023/05/13 11:45:22;;;;;;;1999.90;999.90;;;11.50;84.50;;;;;;5027391;28;20434;-87
2023/05/13 11:47:49;;;;;;;1999.90;999.90;;;11.20;84.80;;;;;;5030108;28;20025;-87
2023/05/13 11:50:32;;;;;;;1999.90;999.90;;;11.30;84.10;;;;;;5011428;28;20040;-87
2023/05/13 11:53:07;;;;;;;1999.90;999.90;;;11.40;84.60;;;;;;5011524;28;20034;-89
2023/05/13 11:55:35;;;;;;;1999.90;999.90;;;11.30;84.80;;;;;;5022815;28;20033;-89
2023/05/13 11:58:01;;;;;;;1999.90;999.90;;;11.40;84.90;;;;;;5039300;28;20042;-89
2023/05/13 12:00:32;;;;;;;1999.90;999.90;;;11.50;84.30;;;;;;5022065;28;20036;-84
2023/05/13 12:03:10;;;;;;;1999.90;999.90;;;11.40;84.00;;;;;;5026384;28;20034;-91